createdAt,value
2018-09-06T00:00:40.310Z,9.73
2018-09-06T00:03:08.572Z,9.43
2018-09-06T00:05:36.439Z,9.80
2018-09-06T00:10:39.046Z,9.40
2018-09-06T00:13:06.818Z,9.83
2018-09-06T00:15:34.733Z,8.87
2018-09-06T00:18:02.705Z,9.00
2018-09-06T00:20:30.410Z,8.87
2018-09-06T00:22:58.264Z,10.00
2018-09-06T00:25:26.205Z,10.37
2018-09-06T00:27:54.178Z,9.40
2018-09-06T00:30:22.047Z,9.67
2018-09-06T00:32:50.095Z,9.33
2018-09-06T00:35:17.977Z,9.70
2018-09-06T00:37:45.754Z,10.03
2018-09-06T00:40:13.758Z,10.80
2018-09-06T00:42:41.708Z,10.37
2018-09-06T00:45:09.492Z,10.20
2018-09-06T00:47:37.639Z,10.10
2018-09-06T00:50:10.068Z,10.40
2018-09-06T00:52:37.808Z,11.03
2018-09-06T00:55:05.686Z,10.77
2018-09-06T00:57:33.589Z,10.67
2018-09-06T01:00:01.476Z,10.30
2018-09-06T01:02:29.748Z,11.23
2018-09-06T01:04:57.823Z,9.37
2018-09-06T01:07:25.857Z,10.53
2018-09-06T01:09:53.760Z,9.87
2018-09-06T01:12:21.602Z,10.07
2018-09-06T01:14:49.355Z,10.30
2018-09-06T01:17:17.260Z,10.43
2018-09-06T01:19:45.156Z,9.60
2018-09-06T01:22:12.989Z,10.20
2018-09-06T01:24:40.881Z,10.73
2018-09-06T01:27:08.755Z,9.87
2018-09-06T01:29:36.489Z,9.93
2018-09-06T01:32:04.448Z,10.43
2018-09-06T01:34:32.281Z,9.83
2018-09-06T01:37:00.145Z,9.20
2018-09-06T01:39:27.987Z,10.27
2018-09-06T01:41:55.821Z,10.47
2018-09-06T01:44:23.646Z,10.83
2018-09-06T01:46:51.441Z,10.40
2018-09-06T01:49:19.197Z,10.37
2018-09-06T01:51:46.902Z,10.47
2018-09-06T01:54:14.952Z,9.80
2018-09-06T01:56:42.693Z,9.80
2018-09-06T01:59:13.278Z,11.33
2018-09-06T02:01:41.537Z,10.40
2018-09-06T02:04:10.200Z,11.07
2018-09-06T02:06:38.424Z,10.77
2018-09-06T02:09:08.072Z,10.43
2018-09-06T02:11:36.389Z,9.57
2018-09-06T02:14:04.335Z,10.37
2018-09-06T02:16:33.428Z,9.80
2018-09-06T02:19:01.287Z,11.63
2018-09-06T02:21:29.081Z,10.47
2018-09-06T02:23:56.920Z,11.47
2018-09-06T02:26:24.768Z,11.07
2018-09-06T02:28:52.664Z,11.43
2018-09-06T02:31:20.525Z,11.23
2018-09-06T02:33:48.374Z,11.17
2018-09-06T02:36:16.126Z,11.70
2018-09-06T02:38:43.890Z,11.53
2018-09-06T02:41:11.781Z,10.30
2018-09-06T02:43:39.611Z,10.77
2018-09-06T02:46:07.414Z,10.23
2018-09-06T02:48:38.243Z,11.30
2018-09-06T02:51:11.923Z,10.53
2018-09-06T02:53:40.572Z,10.97
2018-09-06T02:56:08.713Z,10.67
2018-09-06T02:58:36.715Z,10.00
2018-09-06T03:01:04.649Z,9.53
2018-09-06T03:03:32.749Z,11.33
2018-09-06T03:06:00.501Z,10.67
2018-09-06T03:08:28.360Z,10.87
2018-09-06T03:11:01.823Z,11.80
2018-09-06T03:13:29.529Z,10.77
2018-09-06T03:15:57.483Z,9.97
2018-09-06T03:18:25.257Z,10.80
2018-09-06T03:20:53.133Z,10.20
2018-09-06T03:23:20.988Z,10.17
2018-09-06T03:25:48.889Z,11.13
2018-09-06T03:28:16.799Z,10.93
2018-09-06T03:30:44.560Z,10.53
2018-09-06T03:33:12.392Z,10.70
2018-09-06T03:35:40.208Z,10.73
2018-09-06T03:38:07.980Z,11.40
2018-09-06T03:40:36.046Z,10.70
2018-09-06T03:43:03.887Z,13.30
2018-09-06T03:45:31.760Z,11.50
2018-09-06T03:47:59.577Z,10.93
2018-09-06T03:50:27.350Z,10.53
2018-09-06T03:52:54.991Z,11.13
2018-09-06T03:55:22.828Z,11.60
2018-09-06T03:57:50.628Z,12.07
2018-09-06T04:00:18.357Z,10.37
2018-09-06T04:02:46.976Z,11.97
2018-09-06T04:05:14.728Z,10.50
2018-09-06T04:07:42.418Z,11.17
2018-09-06T04:10:10.195Z,11.57
2018-09-06T04:12:37.873Z,10.63
2018-09-06T04:15:05.699Z,11.40
2018-09-06T04:17:33.445Z,10.47
2018-09-06T04:20:01.273Z,11.90
2018-09-06T04:22:29.013Z,11.57
2018-09-06T04:24:56.974Z,11.57
2018-09-06T04:27:25.093Z,11.23
2018-09-06T04:29:52.733Z,10.80
2018-09-06T04:32:20.429Z,10.30
2018-09-06T04:34:48.129Z,11.77
2018-09-06T04:37:15.941Z,11.50
2018-09-06T04:39:43.594Z,11.63
2018-09-06T04:42:11.229Z,12.40
2018-09-06T04:44:39.064Z,11.53
2018-09-06T04:47:06.916Z,12.27
2018-09-06T04:49:34.717Z,11.77
2018-09-06T04:52:02.515Z,11.93
2018-09-06T04:54:30.272Z,12.40
2018-09-06T04:56:57.998Z,12.53
2018-09-06T04:59:25.722Z,13.07
2018-09-06T05:01:53.784Z,13.20
2018-09-06T05:04:21.466Z,12.10
2018-09-06T05:06:49.224Z,12.63
2018-09-06T05:09:16.936Z,11.57
2018-09-06T05:11:44.800Z,12.53
2018-09-06T05:14:12.482Z,12.57
2018-09-06T05:16:40.191Z,13.17
2018-09-06T05:19:07.850Z,13.10
2018-09-06T05:21:35.550Z,12.60
2018-09-06T05:24:03.278Z,12.67
2018-09-06T05:26:31.046Z,12.30
2018-09-06T05:28:58.708Z,13.43
2018-09-06T05:31:26.618Z,12.43
2018-09-06T05:33:54.268Z,12.20
2018-09-06T05:36:21.966Z,13.63
2018-09-06T05:38:49.661Z,13.10
2018-09-06T05:41:17.368Z,12.63
2018-09-06T05:43:44.998Z,11.87
2018-09-06T05:46:12.804Z,11.90
2018-09-06T05:48:40.975Z,11.80
2018-09-06T05:51:08.721Z,11.90
2018-09-06T05:53:36.518Z,12.73
2018-09-06T05:56:04.165Z,11.80
2018-09-06T05:58:32.232Z,10.70
2018-09-06T06:01:00.317Z,12.00
2018-09-06T06:03:28.075Z,12.27
2018-09-06T06:05:55.897Z,12.17
2018-09-06T06:08:34.977Z,12.40
2018-09-06T06:11:02.806Z,11.03
2018-09-06T06:13:30.661Z,11.43
2018-09-06T06:15:59.006Z,11.50
2018-09-06T06:18:27.323Z,11.10
2018-09-06T06:20:55.021Z,11.80
2018-09-06T06:23:23.381Z,12.27
2018-09-06T06:25:51.211Z,11.80
2018-09-06T06:28:19.137Z,12.50
2018-09-06T06:30:47.051Z,11.60
2018-09-06T06:33:14.713Z,12.60
2018-09-06T06:35:42.429Z,12.40
2018-09-06T06:38:10.210Z,13.50
2018-09-06T06:40:38.009Z,14.07
2018-09-06T06:43:05.755Z,12.70
2018-09-06T06:45:33.878Z,12.90
2018-09-06T06:48:01.704Z,13.03
2018-09-06T06:50:29.663Z,13.33
2018-09-06T06:52:57.305Z,13.10
2018-09-06T06:55:25.138Z,13.07
2018-09-06T06:57:53.066Z,11.97
2018-09-06T09:11:17.747Z,13.43
2018-09-06T09:13:45.742Z,13.70
2018-09-06T09:16:13.543Z,14.87
2018-09-06T09:18:41.301Z,17.40
2018-09-06T09:21:09.201Z,13.30
2018-09-06T09:23:37.041Z,14.37
2018-09-06T09:26:05.095Z,12.80
2018-09-06T09:28:33.029Z,13.90
2018-09-06T09:31:00.793Z,12.63
2018-09-06T09:33:28.557Z,13.27
2018-09-06T09:35:56.332Z,13.80
2018-09-06T09:38:24.089Z,20.60
2018-09-06T09:40:51.845Z,13.87
2018-09-06T09:43:19.690Z,14.23
2018-09-06T09:45:47.395Z,13.87
2018-09-06T09:48:15.141Z,15.90
2018-09-06T09:53:10.267Z,13.90
2018-09-06T09:55:37.953Z,14.93
2018-09-06T09:58:05.812Z,24.90
2018-09-06T10:00:35.705Z,15.63
2018-09-06T10:03:09.053Z,14.63
2018-09-06T10:05:42.300Z,14.40
2018-09-06T10:08:15.690Z,15.43
2018-09-06T10:10:43.634Z,15.57
2018-09-06T10:13:11.378Z,17.17
2018-09-06T10:15:39.952Z,17.90
2018-09-06T10:18:08.304Z,13.80
2018-09-06T10:20:36.036Z,15.80
2018-09-06T10:23:03.836Z,14.77
2018-09-06T10:25:31.649Z,17.57
2018-09-06T10:27:59.729Z,16.30
2018-09-06T10:30:27.881Z,19.40
2018-09-06T10:32:55.752Z,20.30
2018-09-06T10:35:23.659Z,16.13
2018-09-06T10:37:51.407Z,14.30
2018-09-06T10:40:19.244Z,12.13
2018-09-06T10:42:46.987Z,13.27
2018-09-06T10:45:14.747Z,12.53
2018-09-06T10:47:42.754Z,11.70
2018-09-06T10:50:10.588Z,11.53
2018-09-06T10:52:38.389Z,11.83
2018-09-06T10:55:06.098Z,11.53
2018-09-06T10:57:34.039Z,12.60
2018-09-06T11:00:01.872Z,12.27
2018-09-06T11:02:29.699Z,13.27
2018-09-06T11:04:57.526Z,10.60
2018-09-06T11:07:25.460Z,11.30
2018-09-06T11:09:53.294Z,9.10
2018-09-06T11:12:21.099Z,9.23
2018-09-06T11:14:48.912Z,8.37
2018-09-06T11:17:16.796Z,8.90
2018-09-06T11:19:44.636Z,11.30
2018-09-06T11:22:12.809Z,11.43
2018-09-06T11:24:41.749Z,11.47
2018-09-06T11:27:09.464Z,9.80
2018-09-06T11:29:37.304Z,10.50
2018-09-06T11:32:05.223Z,9.57
2018-09-06T11:34:32.952Z,11.57
2018-09-06T11:37:01.215Z,12.07
2018-09-06T11:39:29.140Z,12.03
2018-09-06T11:41:56.971Z,11.23
2018-09-06T11:44:24.875Z,11.83
2018-09-06T11:46:52.909Z,10.90
2018-09-06T11:49:20.628Z,11.53
2018-09-06T11:51:48.509Z,9.80
2018-09-06T11:54:16.201Z,9.10
2018-09-06T11:56:44.433Z,9.60
2018-09-06T11:59:12.267Z,9.47
2018-09-06T12:01:40.291Z,11.53
2018-09-06T12:04:08.382Z,8.93
2018-09-06T12:06:36.422Z,9.80
2018-09-06T12:09:05.514Z,9.70
2018-09-06T12:11:33.218Z,9.90
2018-09-06T12:14:01.106Z,10.60
2018-09-06T12:16:28.834Z,11.27
2018-09-06T12:18:56.635Z,10.60
2018-09-06T12:21:24.474Z,11.23
2018-09-06T12:23:52.296Z,9.50
2018-09-06T12:26:20.179Z,8.97
2018-09-06T12:28:48.034Z,8.47
2018-09-06T12:31:15.786Z,8.40
2018-09-06T12:33:43.740Z,8.13
2018-09-06T12:36:11.600Z,7.60
2018-09-06T12:38:39.460Z,7.10
2018-09-06T12:41:07.225Z,8.00
2018-09-06T12:43:35.233Z,6.97
2018-09-06T12:46:03.070Z,7.57
2018-09-06T12:48:33.494Z,6.80
2018-09-06T12:51:01.415Z,7.80
2018-09-06T12:53:29.687Z,8.73
2018-09-06T12:55:57.524Z,8.07
2018-09-06T12:58:25.417Z,7.50
2018-09-06T13:00:53.560Z,7.20
2018-09-06T13:03:21.822Z,7.07
2018-09-06T13:05:50.227Z,7.60
2018-09-06T13:08:17.968Z,7.53
2018-09-06T13:10:45.950Z,8.20
2018-09-06T13:13:14.196Z,8.07
2018-09-06T13:15:42.180Z,8.07
2018-09-06T13:18:10.434Z,7.07
2018-09-06T13:20:38.906Z,7.93
2018-09-06T13:23:07.190Z,7.10
2018-09-06T13:25:35.159Z,12.70
2018-09-06T13:28:03.441Z,8.53
2018-09-06T13:30:31.472Z,8.57
2018-09-06T13:32:59.195Z,7.80
2018-09-06T13:35:26.996Z,7.90
2018-09-06T13:37:54.682Z,7.50
2018-09-06T13:40:22.477Z,23.80
2018-09-06T13:42:50.327Z,11.33
2018-09-06T13:45:18.089Z,7.07
2018-09-06T13:47:45.879Z,9.50
2018-09-06T13:50:13.586Z,8.67
2018-09-06T13:52:41.375Z,8.93
2018-09-06T13:55:09.107Z,8.73
2018-09-06T13:57:36.900Z,7.70
2018-09-06T14:00:05.169Z,12.57
2018-09-06T14:02:33.425Z,9.10
2018-09-06T14:05:01.607Z,14.50
2018-09-06T14:07:29.950Z,8.27
2018-09-06T14:09:57.833Z,8.30
2018-09-06T14:12:25.834Z,8.00
2018-09-06T14:14:53.758Z,7.80
2018-09-06T14:17:21.554Z,8.93
2018-09-06T14:19:49.333Z,8.70
2018-09-06T14:22:17.372Z,8.00
2018-09-06T14:24:45.212Z,9.30
2018-09-06T14:27:13.232Z,9.07
2018-09-06T14:29:41.488Z,8.77
2018-09-06T14:32:09.222Z,9.30
2018-09-06T14:34:37.270Z,10.30
2018-09-06T14:37:05.382Z,11.50
2018-09-06T14:39:33.066Z,9.00
2018-09-06T14:42:00.906Z,9.57
2018-09-06T14:44:28.573Z,11.77
2018-09-06T14:46:56.316Z,11.67
2018-09-06T14:49:24.333Z,11.20
2018-09-06T14:51:52.515Z,12.27
2018-09-06T14:54:20.373Z,10.90
2018-09-06T14:56:48.109Z,11.07
2018-09-06T14:59:15.865Z,11.13
2018-09-06T15:01:45.229Z,12.03
2018-09-06T15:04:13.325Z,11.20
2018-09-06T15:06:41.123Z,13.07
2018-09-06T15:09:09.558Z,14.70
2018-09-06T15:11:37.794Z,13.43
2018-09-06T15:19:04.868Z,13.53
2018-09-06T15:21:32.579Z,14.87
2018-09-06T15:24:00.195Z,14.60
2018-09-06T15:26:28.258Z,14.90
2018-09-06T15:28:55.974Z,14.83
2018-09-06T15:31:24.549Z,14.70
2018-09-06T15:33:53.082Z,14.67
2018-09-06T15:36:21.035Z,13.50
2018-09-06T15:38:49.129Z,13.60
2018-09-06T15:41:17.239Z,13.53
2018-09-06T15:43:45.255Z,13.20
2018-09-06T15:46:13.267Z,12.60
2018-09-06T15:48:41.155Z,11.30
2018-09-06T15:51:08.964Z,10.60
2018-09-06T15:53:37.026Z,10.13
2018-09-06T15:56:04.980Z,11.10
2018-09-06T15:58:32.684Z,12.17
2018-09-06T16:01:00.442Z,12.07
2018-09-06T16:03:28.284Z,11.90
2018-09-06T16:05:56.016Z,12.33
2018-09-06T16:08:24.041Z,11.80
2018-09-06T16:10:51.898Z,11.80
2018-09-06T16:13:19.928Z,11.67
2018-09-06T16:15:47.618Z,11.97
2018-09-06T16:18:15.438Z,12.60
2018-09-06T16:20:43.328Z,12.30
2018-09-06T16:23:11.077Z,11.30
2018-09-06T16:25:40.783Z,11.93
2018-09-06T16:28:08.471Z,12.63
2018-09-06T16:30:36.177Z,12.53
2018-09-06T16:33:03.957Z,12.90
2018-09-06T16:35:31.687Z,12.40
2018-09-06T16:37:59.315Z,11.87
2018-09-06T16:40:27.114Z,12.90
2018-09-06T16:42:54.958Z,13.10
2018-09-06T16:45:22.697Z,12.60
2018-09-06T16:47:50.447Z,12.43
2018-09-06T16:50:24.060Z,12.40
2018-09-06T16:52:51.874Z,12.07
2018-09-06T16:55:19.713Z,12.70
2018-09-06T16:57:47.469Z,11.60
2018-09-06T17:00:15.320Z,13.20
2018-09-06T17:02:43.147Z,12.60
2018-09-06T17:05:10.822Z,12.87
2018-09-06T17:07:38.762Z,14.20
2018-09-06T17:10:09.529Z,13.43
2018-09-06T17:12:37.269Z,12.20
2018-09-06T17:15:05.293Z,12.77
2018-09-06T17:17:33.018Z,12.13
2018-09-06T17:20:00.769Z,13.07
2018-09-06T17:22:28.542Z,13.30
2018-09-06T17:24:56.329Z,13.93
2018-09-06T17:27:24.097Z,12.60
2018-09-06T17:29:51.819Z,12.80
2018-09-06T17:32:19.865Z,12.63
2018-09-06T17:34:47.583Z,11.43
2018-09-06T17:37:15.402Z,11.87
2018-09-06T17:39:43.206Z,11.73
2018-09-06T17:42:11.030Z,10.93
2018-09-06T17:44:38.834Z,10.73
2018-09-06T17:47:06.701Z,9.90
2018-09-06T17:49:34.409Z,10.17
2018-09-06T17:52:02.128Z,10.77
2018-09-06T17:54:29.875Z,9.77
2018-09-06T17:56:57.652Z,10.10
2018-09-06T17:59:25.374Z,9.60
2018-09-06T18:01:53.332Z,9.20
2018-09-06T18:04:21.200Z,10.80
2018-09-06T18:06:49.060Z,10.80
2018-09-06T18:09:16.817Z,9.30
2018-09-06T18:11:44.748Z,10.53
2018-09-06T18:14:12.525Z,9.70
2018-09-06T18:16:40.525Z,9.90
2018-09-06T18:19:08.162Z,9.67
2018-09-06T18:21:35.967Z,10.13
2018-09-06T18:24:03.838Z,10.00
2018-09-06T18:26:31.515Z,9.63
2018-09-06T18:28:59.567Z,10.67
2018-09-06T18:31:27.395Z,11.07
2018-09-06T18:33:55.245Z,11.13
2018-09-06T18:36:23.065Z,10.10
2018-09-06T18:38:51.052Z,10.93
2018-09-06T18:41:18.833Z,11.20
2018-09-06T18:43:46.656Z,11.00
2018-09-06T18:46:14.325Z,11.33
2018-09-06T18:48:42.548Z,12.27
2018-09-06T18:51:10.529Z,10.70
2018-09-06T18:53:38.583Z,11.40
2018-09-06T18:56:06.355Z,11.40
2018-09-06T18:58:34.145Z,11.27
2018-09-06T19:01:02.090Z,11.97
2018-09-06T19:03:29.737Z,11.37
2018-09-06T19:05:57.666Z,12.13
2018-09-06T19:08:25.470Z,11.47
2018-09-06T19:10:53.221Z,11.50
2018-09-06T19:13:21.152Z,12.37
2018-09-06T19:15:48.802Z,12.50
2018-09-06T19:18:16.641Z,13.50
2018-09-06T19:20:44.427Z,12.03
2018-09-06T19:23:12.119Z,12.47
2018-09-06T19:25:39.812Z,12.33
2018-09-06T19:28:08.248Z,14.67
2018-09-06T19:30:36.370Z,14.80
2018-09-06T19:33:04.279Z,13.93
2018-09-06T19:35:32.010Z,13.03
2018-09-06T19:37:59.826Z,14.20
2018-09-06T19:40:27.962Z,14.07
2018-09-06T19:42:55.843Z,13.70
2018-09-06T19:45:23.743Z,14.30
2018-09-06T19:47:51.510Z,14.60
2018-09-06T19:50:19.362Z,14.70
2018-09-06T19:52:47.079Z,14.07
2018-09-06T19:55:14.749Z,13.90
2018-09-06T19:57:42.494Z,14.50
2018-09-06T20:00:10.349Z,14.73
2018-09-06T20:02:38.075Z,14.80
2018-09-06T20:05:06.109Z,15.07
2018-09-06T20:07:33.891Z,15.43
2018-09-06T20:10:01.799Z,15.37
2018-09-06T20:12:29.670Z,15.57
2018-09-06T20:14:57.529Z,15.67
2018-09-06T20:17:25.261Z,15.63
2018-09-06T20:19:53.013Z,17.97
2018-09-06T20:22:20.768Z,16.70
2018-09-06T20:24:48.500Z,17.33
2018-09-06T20:27:16.217Z,20.03
2018-09-06T20:29:43.960Z,18.40
2018-09-06T20:32:11.741Z,18.70
2018-09-06T20:34:39.518Z,21.00
2018-09-06T20:37:07.252Z,17.87
2018-09-06T20:39:34.993Z,18.20
2018-09-06T20:42:02.857Z,17.73
2018-09-06T20:44:30.555Z,19.57
2018-09-06T20:46:58.238Z,20.53
2018-09-06T20:49:26.038Z,20.93
2018-09-06T20:51:53.809Z,20.97
2018-09-06T20:54:21.594Z,21.50
2018-09-06T20:56:49.333Z,22.17
2018-09-06T20:59:17.072Z,24.50
2018-09-06T21:01:44.724Z,23.10
2018-09-06T21:04:12.535Z,23.00
2018-09-06T21:06:40.331Z,22.37
2018-09-06T21:09:08.977Z,23.17
2018-09-06T21:11:37.004Z,23.03
2018-09-06T21:14:05.062Z,22.97
2018-09-06T21:16:32.983Z,25.00
2018-09-06T21:19:01.042Z,25.10
2018-09-06T21:21:28.957Z,24.23
2018-09-06T21:23:56.620Z,25.47
2018-09-06T21:26:26.075Z,25.00
2018-09-06T21:28:53.845Z,26.60
2018-09-06T21:31:21.787Z,27.10
2018-09-06T21:33:49.595Z,26.87
2018-09-06T21:36:17.408Z,25.37
2018-09-06T21:38:45.166Z,25.57
2018-09-06T21:41:13.009Z,28.17
2018-09-06T21:43:40.731Z,29.00
2018-09-06T21:46:08.669Z,28.00
2018-09-06T21:48:36.465Z,31.53
2018-09-06T21:51:04.198Z,31.27
2018-09-06T21:53:31.870Z,30.07
2018-09-06T21:55:59.725Z,32.50
2018-09-06T21:58:27.424Z,31.83
2018-09-06T22:00:55.148Z,34.03
2018-09-06T22:03:28.645Z,34.80
2018-09-06T22:05:56.370Z,35.30
2018-09-06T22:08:24.164Z,34.40
2018-09-06T22:10:51.951Z,34.20
2018-09-06T22:13:19.627Z,34.40
2018-09-06T22:15:47.467Z,34.47
2018-09-06T22:18:15.309Z,35.77
2018-09-06T22:20:43.002Z,36.67
2018-09-06T22:23:10.843Z,34.60
2018-09-06T22:25:38.742Z,34.47
2018-09-06T22:28:06.493Z,39.07
2018-09-06T22:30:34.210Z,37.47
2018-09-06T22:33:01.940Z,36.30
2018-09-06T22:35:29.649Z,35.20
2018-09-06T22:37:57.367Z,38.00
2018-09-06T22:40:25.255Z,39.83
2018-09-06T22:42:52.939Z,36.50
2018-09-06T22:45:20.665Z,38.30
2018-09-06T22:47:48.422Z,41.83
2018-09-06T22:50:16.183Z,39.97
2018-09-06T22:52:43.910Z,39.00
2018-09-06T22:55:11.630Z,39.70
2018-09-06T22:57:39.389Z,38.37
2018-09-06T23:00:07.152Z,38.63
2018-09-06T23:02:40.438Z,37.20
2018-09-06T23:05:08.187Z,40.13
2018-09-06T23:07:35.931Z,38.47
2018-09-06T23:10:04.087Z,38.63
2018-09-06T23:12:31.972Z,38.40
2018-09-06T23:14:59.717Z,38.90
2018-09-06T23:17:27.539Z,38.27
2018-09-06T23:19:55.205Z,37.87
2018-09-06T23:22:24.247Z,38.80
2018-09-06T23:24:53.090Z,38.23
2018-09-06T23:27:23.936Z,36.90
2018-09-06T23:29:51.699Z,42.13
2018-09-06T23:32:19.434Z,39.60
2018-09-06T23:34:47.296Z,39.50
2018-09-06T23:37:14.955Z,38.90
2018-09-06T23:39:42.798Z,38.50
2018-09-06T23:42:10.488Z,40.20
2018-09-06T23:44:38.326Z,38.23
2018-09-06T23:47:06.051Z,37.50
2018-09-06T23:49:33.875Z,40.40
2018-09-06T23:52:01.583Z,41.70
2018-09-06T23:54:29.475Z,40.27
2018-09-06T23:56:57.158Z,41.27
2018-09-06T23:59:25.029Z,41.17
